Time;durP1;ratioP1;P1;durP2;ratioP2;P2;SDS_P1;SDS_P2;PMS_P1;PMS_P2;Temp;Humidity;BMP_temperature;BMP_pressure;BME280_temperature;BME280_humidity;BME280_pressure;Samples;Min_cycle;Max_cycle;Signal;HPM_P1;HPM_P2
2022/06/16 00:00:42;;;;;;;9.43;5.08;;;;;;;10.47;72.28;99894.92;1707490;81;21119;-61
2022/06/16 00:03:09;;;;;;;7.33;4.70;;;;;;;10.44;72.35;99893.28;1729997;82;20900;-61
2022/06/16 00:05:40;;;;;;;7.05;4.40;;;;;;;10.43;72.44;99890.30;1726573;82;21406;-60
2022/06/16 00:08:09;;;;;;;7.80;4.42;;;;;;;10.43;72.59;99888.99;1733521;82;21441;-60
2022/06/16 00:10:37;;;;;;;8.25;4.45;;;;;;;10.41;72.66;99888.20;1729915;82;20976;-61
2022/06/16 00:13:05;;;;;;;9.58;4.35;;;;;;;10.40;72.71;99894.34;1731105;82;21064;-61
2022/06/16 00:15:32;;;;;;;;;;;;;;;10.36;72.77;99892.77;1731859;82;20888;-61
2022/06/16 00:17:59;;;;;;;8.38;4.53;;;;;;;10.32;73.02;99893.83;1729900;81;20076;-60
2022/06/16 00:20:26;;;;;;;10.50;5.30;;;;;;;10.31;72.94;99886.93;1725024;82;20988;-62
2022/06/16 00:22:53;;;;;;;8.28;4.58;;;;;;;10.30;73.03;99890.44;1723800;82;20947;-61
2022/06/16 00:25:20;;;;;;;6.30;4.35;;;;;;;10.31;73.14;99886.93;1715727;82;21151;-61
2022/06/16 00:27:46;;;;;;;7.40;4.17;;;;;;;10.27;73.24;99882.74;1694632;84;21140;-61
2022/06/16 00:30:13;;;;;;;9.60;4.53;;;;;;;10.24;73.28;99882.84;1757433;81;20956;-61
2022/06/16 00:32:41;;;;;;;6.28;4.33;;;;;;;10.19;73.37;99882.19;1752110;81;20914;-61
2022/06/16 00:35:10;;;;;;;6.55;4.22;;;;;;;10.17;73.55;99873.60;1739500;81;20975;-61
2022/06/16 00:37:36;;;;;;;7.00;4.30;;;;;;;10.14;73.62;99868.48;1744273;81;22078;-60
2022/06/16 00:40:04;;;;;;;5.83;4.78;;;;;;;10.07;73.61;99862.23;1754930;81;20951;-61
2022/06/16 00:42:31;;;;;;;6.60;5.00;;;;;;;10.03;73.65;99861.99;1754305;81;21522;-61
2022/06/16 00:44:57;;;;;;;7.60;4.77;;;;;;;9.97;73.62;99867.47;1749002;81;21477;-60
2022/06/16 00:47:29;;;;;;;6.67;4.62;;;;;;;9.91;73.77;99862.49;1746150;81;20910;-61
2022/06/16 00:50:00;;;;;;;8.80;5.00;;;;;;;9.86;73.91;99862.70;1750023;81;21943;-60
2022/06/16 00:52:31;;;;;;;8.03;5.45;;;;;;;9.85;74.05;99866.20;1756482;81;20927;-60
2022/06/16 00:55:06;;;;;;;6.03;5.00;;;;;;;9.87;74.16;99870.06;1756688;81;21488;-61
2022/06/16 00:57:37;;;;;;;11.85;6.97;;;;;;;9.87;74.23;99870.06;1752109;81;20931;-61
2022/06/16 01:00:20;;;;;;;7.33;4.85;;;;;;;9.87;74.29;99876.59;1746128;81;20903;-61
2022/06/16 01:02:38;;;;;;;6.03;5.12;;;;;;;9.87;74.42;99879.20;1735257;81;21042;-61
2022/06/16 01:05:05;;;;;;;9.63;4.67;;;;;;;9.88;74.56;99865.23;1748248;81;20950;-61
2022/06/16 01:07:39;;;;;;;11.55;4.85;;;;;;;9.94;74.67;99868.91;1749866;81;20941;-61
2022/06/16 01:10:08;;;;;;;9.45;5.03;;;;;;;10.00;74.82;99867.34;1741235;81;20973;-61
2022/06/16 01:16:26;;;;;;;11.33;5.58;;;;;;;9.95;74.91;99862.77;1749623;81;21076;-61
2022/06/16 01:19:20;;;;;;;7.08;4.72;;;;;;;9.99;74.98;99860.41;1741450;81;20858;-61
2022/06/16 01:22:04;;;;;;;8.45;4.62;;;;;;;9.98;75.04;99867.85;1738546;81;20895;-61
2022/06/16 01:25:04;;;;;;;7.15;4.78;;;;;;;9.96;75.13;99867.53;1738560;81;20896;-61
2022/06/16 01:27:48;;;;;;;9.70;5.97;;;;;;;9.89;75.14;99861.73;1743703;81;20929;-61
2022/06/16 01:30:23;;;;;;;8.33;5.10;;;;;;;9.82;75.10;99860.28;1717279;82;21885;-61
2022/06/16 01:32:57;;;;;;;7.22;4.05;;;;;;;9.73;75.16;99859.38;1720509;82;21896;-61
2022/06/16 01:35:50;;;;;;;8.90;4.83;;;;;;;9.66;75.28;99864.43;1717666;82;20992;-61
2022/06/16 01:38:24;;;;;;;6.28;4.83;;;;;;;9.60;75.44;99868.14;1716399;82;20889;-61
2022/06/16 01:41:11;;;;;;;5.95;4.62;;;;;;;9.53;75.57;99866.25;1712426;82;20937;-60
2022/06/16 01:43:52;;;;;;;9.38;4.97;;;;;;;9.48;75.60;99866.88;1714919;82;20967;-60
2022/06/16 01:46:29;;;;;;;8.83;4.75;;;;;;;9.43;75.77;99860.16;1715863;82;21032;-60
2022/06/16 01:49:04;;;;;;;;;;;;;;;9.38;75.92;99853.39;1719592;82;20945;-61
2022/06/16 01:51:57;;;;;;;6.42;4.95;;;;;;;9.37;76.24;99852.98;1714944;82;20121;-60
2022/06/16 01:54:40;;;;;;;9.13;6.35;;;;;;;9.38;76.29;99853.82;1715627;82;20987;-61
2022/06/16 01:57:30;;;;;;;8.48;5.40;;;;;;;9.37;76.38;99849.06;1713242;82;21048;-61
2022/06/16 02:00:08;;;;;;;10.00;6.55;;;;;;;9.42;76.48;99854.11;1710054;82;21550;-61
2022/06/16 02:02:38;;;;;;;9.33;5.00;;;;;;;9.48;76.67;99857.77;1707903;82;20966;-60
2022/06/16 02:05:15;;;;;;;9.33;6.00;;;;;;;9.52;76.70;99855.44;1708194;83;20945;-61
2022/06/16 02:07:50;;;;;;;7.45;5.20;;;;;;;9.53;76.67;99855.82;1690598;82;21525;-61
2022/06/16 02:10:24;;;;;;;7.75;4.70;;;;;;;9.57;76.69;99849.56;1725315;82;21124;-60
2022/06/16 02:12:58;;;;;;;8.70;4.50;;;;;;;9.58;76.80;99852.58;1691512;83;20958;-61
2022/06/16 02:15:56;;;;;;;7.92;4.62;;;;;;;9.60;76.85;99853.34;1669495;85;21452;-61
2022/06/16 02:18:28;;;;;;;7.03;4.87;;;;;;;9.58;76.88;99844.76;1666400;83;20965;-61
2022/06/16 02:21:03;;;;;;;8.28;4.55;;;;;;;9.61;76.91;99848.54;1671281;84;21011;-61
2022/06/16 02:23:30;;;;;;;7.25;4.70;;;;;;;9.59;76.84;99843.83;1665324;85;21096;-61
2022/06/16 02:25:58;;;;;;;7.47;5.12;;;;;;;9.55;76.90;99848.80;1666929;85;20952;-61
2022/06/16 02:28:26;;;;;;;5.55;3.98;;;;;;;9.51;76.93;99856.33;1679206;85;20961;-61
2022/06/16 02:31:16;;;;;;;9.05;5.55;;;;;;;9.52;77.05;99848.92;1688518;84;20945;-61
2022/06/16 02:33:57;;;;;;;6.78;4.00;;;;;;;9.54;77.08;99846.23;1696313;82;20949;-60
2022/06/16 02:36:31;;;;;;;7.85;4.55;;;;;;;9.52;77.08;99844.14;1690542;83;21169;-61
2022/06/16 02:39:26;;;;;;;5.72;4.12;;;;;;;9.53;77.19;99837.58;1698395;83;21451;-61
2022/06/16 02:42:28;;;;;;;8.28;4.58;;;;;;;9.55;77.34;99841.41;1663787;85;21487;-61
2022/06/16 02:45:15;;;;;;;7.03;4.47;;;;;;;9.66;77.46;99843.58;1665924;85;20955;-61
2022/06/16 02:48:10;;;;;;;8.80;4.40;;;;;;;9.85;77.72;99831.46;1690915;84;21491;-61
2022/06/16 02:50:57;;;;;;;5.83;4.10;;;;;;;9.98;77.64;99836.55;1677913;83;21681;-61
2022/06/16 02:53:52;;;;;;;6.05;4.17;;;;;;;10.04;77.56;99834.98;1673372;85;21733;-60
2022/06/16 02:56:39;;;;;;;8.30;4.15;;;;;;;10.09;77.68;99836.09;1670726;83;20974;-61
2022/06/16 02:59:17;;;;;;;5.85;4.33;;;;;;;10.28;77.78;99829.66;1666389;85;21459;-61
2022/06/16 03:01:44;;;;;;;7.17;3.95;;;;;;;10.38;77.72;99828.31;1672092;85;21051;-60
2022/06/16 03:04:15;;;;;;;5.80;4.00;;;;;;;10.42;77.74;99822.05;1732655;82;21926;-61
2022/06/16 03:06:43;;;;;;;4.53;3.47;;;;;;;10.41;77.53;99820.34;1730849;82;21894;-62
2022/06/16 03:09:11;;;;;;;6.47;4.20;;;;;;;10.38;77.62;99823.09;1731494;82;20899;-60
2022/06/16 03:11:39;;;;;;;4.97;3.83;;;;;;;10.43;77.83;99822.43;1732698;82;21426;-61
2022/06/16 03:14:06;;;;;;;6.50;4.80;;;;;;;10.56;77.78;99821.86;1731619;81;21536;-61
2022/06/16 03:16:35;;;;;;;6.00;4.15;;;;;;;10.65;77.88;99817.55;1726802;82;21027;-61
2022/06/16 03:19:02;;;;;;;7.10;4.08;;;;;;;10.77;77.95;99816.97;1731250;82;20982;-61
2022/06/16 03:21:28;;;;;;;8.33;3.98;;;;;;;10.85;77.85;99818.77;1727871;82;20942;-61
2022/06/16 03:23:55;;;;;;;9.68;4.00;;;;;;;10.93;77.84;99812.72;1702157;83;20967;-61
2022/06/16 03:26:22;;;;;;;7.23;4.30;;;;;;;11.01;77.80;99808.45;1702397;83;21436;-61
2022/06/16 03:28:49;;;;;;;7.20;3.97;;;;;;;11.06;77.72;99816.05;1698735;83;21145;-61
2022/06/16 03:31:16;;;;;;;8.33;4.40;;;;;;;11.10;77.76;99822.38;1697108;82;20971;-61
2022/06/16 03:33:43;;;;;;;6.92;4.30;;;;;;;11.08;77.70;99794.62;1690568;83;20961;-61
2022/06/16 03:36:12;;;;;;;5.85;4.33;;;;;;;11.22;77.86;99815.70;1702151;83;20948;-61
2022/06/16 03:38:41;;;;;;;6.53;4.47;;;;;;;11.32;77.91;99805.20;1678784;85;21077;-61
2022/06/16 03:41:08;;;;;;;9.15;4.90;;;;;;;11.41;77.88;99808.66;1701243;83;23001;-61
2022/06/16 03:43:34;;;;;;;7.03;4.50;;;;;;;11.50;77.90;99805.20;1678632;85;21666;-61
2022/06/16 03:46:01;;;;;;;8.25;5.37;;;;;;;11.59;77.89;99808.66;1730607;82;20911;-61
2022/06/16 03:48:28;;;;;;;4.70;4.30;;;;;;;11.68;77.93;99800.38;1731682;82;20908;-61
2022/06/16 03:50:54;;;;;;;10.50;4.65;;;;;;;11.79;78.01;99808.52;1729102;82;20982;-61
2022/06/16 03:53:21;;;;;;;8.07;4.83;;;;;;;11.93;78.14;99805.23;1728202;82;21876;-61
2022/06/16 03:55:50;;;;;;;6.57;4.80;;;;;;;12.11;78.21;99795.57;1729197;82;20954;-61
2022/06/16 03:58:16;;;;;;;7.25;4.60;;;;;;;12.29;78.13;99799.84;1732966;82;20892;-61
2022/06/16 04:00:44;;;;;;;7.28;5.08;;;;;;;12.47;78.09;99797.17;1739200;82;21461;-61
2022/06/16 04:05:56;;;;;;;6.97;5.00;;;;;;;12.88;78.46;99794.04;1751055;81;22023;-61
2022/06/16 04:08:23;;;;;;;6.42;4.70;;;;;;;13.29;78.52;99798.77;1750880;81;20942;-61
2022/06/16 04:10:50;;;;;;;6.45;4.62;;;;;;;13.53;78.24;99793.90;1741704;81;20874;-61
2022/06/16 04:13:16;;;;;;;9.58;4.78;;;;;;;13.71;78.04;99786.72;1743607;81;20880;-61
2022/06/16 04:15:44;;;;;;;7.40;4.30;;;;;;;13.86;78.01;99785.79;1746818;81;21515;-61
2022/06/16 04:18:11;;;;;;;7.50;3.67;;;;;;;14.03;77.90;99788.27;1750318;81;20993;-62
2022/06/16 04:20:38;;;;;;;4.95;4.12;;;;;;;14.28;77.74;99786.75;1747475;81;20926;-61
2022/06/16 04:23:10;;;;;;;7.25;3.83;;;;;;;14.52;77.79;99780.02;1745437;81;21474;-61
2022/06/16 04:25:34;;;;;;;7.03;3.87;;;;;;;14.76;77.59;99778.11;1749051;81;20977;-61
2022/06/16 04:28:04;;;;;;;5.83;3.98;;;;;;;14.99;77.44;99784.03;1740732;81;21535;-61
2022/06/16 04:30:31;;;;;;;6.90;3.60;;;;;;;15.27;77.47;99782.25;1743878;81;21060;-61
2022/06/16 04:32:59;;;;;;;5.85;3.40;;;;;;;15.60;77.56;99773.03;1735356;81;21388;-61
2022/06/16 04:35:26;;;;;;;;;;;;;;;16.01;77.83;99775.52;1737465;81;20880;-61
2022/06/16 04:37:53;;;;;;;5.80;3.05;;;;;;;16.34;76.88;99780.72;1741438;81;20104;-61
2022/06/16 04:40:20;;;;;;;;;;;;;;;16.50;76.50;99770.78;1743518;81;20935;-61
2022/06/16 04:42:46;;;;;;;6.15;3.02;;;;;;;16.76;76.55;99772.89;1737361;81;20969;-61
2022/06/16 04:45:13;;;;;;;6.03;2.55;;;;;;;16.95;76.31;99778.17;1737544;81;21495;-62
2022/06/16 04:47:40;;;;;;;5.33;2.33;;;;;;;17.16;75.49;99772.62;1737403;81;21033;-61
2022/06/16 04:50:10;;;;;;;3.62;2.42;;;;;;;17.37;75.93;99772.00;1731351;81;21428;-61
2022/06/16 04:52:36;;;;;;;3.77;2.60;;;;;;;17.67;75.36;99771.46;1733478;81;20955;-62
2022/06/16 04:55:04;;;;;;;3.02;2.58;;;;;;;17.91;74.91;99775.88;1736791;81;21872;-62
2022/06/16 04:57:34;;;;;;;3.87;2.33;;;;;;;18.23;74.73;99766.30;1728652;81;20934;-61
2022/06/16 05:00:00;;;;;;;4.40;2.22;;;;;;;18.55;74.41;99770.84;1734615;81;20875;-62
2022/06/16 05:02:27;;;;;;;4.90;2.20;;;;;;;19.08;74.19;99763.54;1735499;80;21491;-62
2022/06/16 05:04:54;;;;;;;5.97;2.40;;;;;;;19.23;73.35;99763.59;1751645;80;20902;-62
2022/06/16 05:07:20;;;;;;;2.83;1.90;;;;;;;19.44;72.61;99763.14;1750105;80;21082;-62
2022/06/16 05:09:47;;;;;;;7.20;1.77;;;;;;;19.54;72.69;99771.63;1757121;80;21491;-61
2022/06/16 05:12:13;;;;;;;3.92;1.80;;;;;;;19.45;71.37;99774.07;1749949;80;21009;-61
2022/06/16 05:14:41;;;;;;;6.40;2.25;;;;;;;19.24;71.83;99769.26;1749106;80;21565;-62
2022/06/16 05:17:07;;;;;;;;;;;;;;;19.21;71.43;99765.51;1748405;80;20921;-62
2022/06/16 05:19:34;;;;;;;;;;;;;;;19.09;70.67;99766.53;1752308;80;21302;-61
2022/06/16 05:22:01;;;;;;;5.12;2.17;;;;;;;18.86;70.43;99765.77;1749261;80;21988;-62
2022/06/16 05:24:28;;;;;;;3.70;1.95;;;;;;;18.67;70.55;99759.27;1748122;80;20985;-63
2022/06/16 05:26:55;;;;;;;4.42;2.00;;;;;;;18.71;70.34;99759.89;1743464;80;20930;-62
2022/06/16 05:29:22;;;;;;;4.22;1.75;;;;;;;18.73;70.42;99760.58;1747853;80;20949;-63
2022/06/16 05:31:49;;;;;;;4.65;1.95;;;;;;;18.97;70.04;99763.09;1759635;80;21883;-62
2022/06/16 05:34:16;;;;;;;2.60;1.80;;;;;;;19.15;70.11;99762.05;1762691;80;20870;-62
2022/06/16 05:36:49;;;;;;;10.65;2.67;;;;;;;19.32;69.63;99765.46;1762909;79;21003;-62
2022/06/16 05:39:14;;;;;;;3.72;2.10;;;;;;;19.49;69.43;99767.19;1754711;80;20961;-62
2022/06/16 05:41:41;;;;;;;4.03;1.70;;;;;;;19.82;69.09;99770.16;1764180;80;20890;-63
2022/06/16 05:44:09;;;;;;;4.03;2.40;;;;;;;20.27;69.42;99769.34;1759822;80;21716;-63
2022/06/16 05:46:36;;;;;;;4.50;1.92;;;;;;;20.97;69.34;99766.27;1750576;80;20958;-62
2022/06/16 05:49:04;;;;;;;2.65;1.67;;;;;;;21.24;65.92;99770.91;1763274;80;20959;-62
2022/06/16 05:51:30;;;;;;;5.22;1.90;;;;;;;20.72;66.25;99762.31;1754470;80;21499;-63
2022/06/16 05:53:57;;;;;;;3.75;1.80;;;;;;;20.55;65.88;99762.98;1759355;80;20925;-63
2022/06/16 05:56:24;;;;;;;4.60;1.80;;;;;;;20.51;66.46;99764.20;1758928;80;21023;-63
2022/06/16 05:58:50;;;;;;;5.28;2.40;;;;;;;20.55;66.18;99766.95;1760101;80;21634;-63
2022/06/16 06:01:17;;;;;;;6.10;1.98;;;;;;;20.54;65.81;99762.14;1762114;80;20918;-63
2022/06/16 06:03:44;;;;;;;4.00;1.60;;;;;;;20.55;65.93;99761.66;1757726;80;21005;-63
2022/06/16 06:06:11;;;;;;;2.87;1.40;;;;;;;20.57;64.88;99770.32;1761866;80;21527;-62
2022/06/16 06:17:05;;;;;;;3.20;1.50;;;;;;;20.66;63.88;99768.17;1765087;80;20906;-62
2022/06/16 06:19:32;;;;;;;3.17;1.25;;;;;;;20.28;62.98;99764.41;1755318;80;20919;-62
2022/06/16 06:22:17;;;;;;;2.60;1.40;;;;;;;19.81;61.99;99773.30;1751662;80;21047;-62
2022/06/16 06:24:50;;;;;;;4.47;1.57;;;;;;;19.32;62.01;99773.89;1756981;80;20937;-62
2022/06/16 06:27:37;;;;;;;3.90;1.30;;;;;;;18.93;61.90;99779.70;1757468;80;20927;-63
2022/06/16 06:30:06;;;;;;;;;;;;;;;18.73;62.17;99783.06;1766289;80;21501;-62
2022/06/16 06:32:33;;;;;;;3.90;1.35;;;;;;;18.61;61.27;99784.06;1765714;80;20129;-62
2022/06/16 06:35:00;;;;;;;;;;;;;;;18.30;61.49;99787.31;1757477;80;21035;-62
2022/06/16 06:37:28;;;;;;;3.05;1.27;;;;;;;18.15;61.28;99777.09;1755839;80;20137;-62
2022/06/16 06:39:55;;;;;;;3.33;1.25;;;;;;;18.04;60.76;99774.82;1758484;80;21492;-62
2022/06/16 06:42:22;;;;;;;7.35;1.27;;;;;;;17.87;60.93;99780.56;1763548;80;20870;-62
2022/06/16 06:44:50;;;;;;;1.72;1.00;;;;;;;17.72;60.79;99772.45;1754577;80;21017;-62
2022/06/16 06:47:23;;;;;;;3.58;1.45;;;;;;;17.59;60.90;99778.67;1732182;80;21056;-62
2022/06/16 06:49:51;;;;;;;8.25;1.57;;;;;;;17.58;60.91;99775.65;1763383;80;20896;-62
2022/06/16 06:52:18;;;;;;;3.75;1.82;;;;;;;17.51;61.02;99778.41;1759915;80;20898;-62
2022/06/16 06:54:46;;;;;;;3.10;1.10;;;;;;;17.64;61.10;99767.28;1751947;80;21370;-63
2022/06/16 06:57:18;;;;;;;2.58;1.40;;;;;;;17.73;60.97;99772.80;1754230;80;20903;-62
2022/06/16 06:59:45;;;;;;;2.67;1.27;;;;;;;17.84;61.11;99776.81;1762478;80;21044;-62
2022/06/16 07:02:14;;;;;;;2.33;0.98;;;;;;;17.93;60.59;99776.12;1756192;80;20953;-62
2022/06/16 07:04:42;;;;;;;5.47;1.35;;;;;;;17.81;60.24;99781.01;1751351;80;20953;-62
2022/06/16 07:07:13;;;;;;;1.75;1.15;;;;;;;17.86;60.45;99774.91;1755831;80;20922;-62
2022/06/16 07:09:40;;;;;;;4.67;1.40;;;;;;;18.03;60.62;99778.41;1748542;80;20895;-62
2022/06/16 07:12:13;;;;;;;;;;;;;;;18.30;60.76;99779.87;1765000;80;21905;-62
2022/06/16 07:14:39;;;;;;;2.75;1.15;;;;;;;18.62;60.73;99778.63;1756334;80;20836;-62
2022/06/16 07:17:06;;;;;;;3.02;1.42;;;;;;;18.89;60.47;99782.22;1731544;80;21781;-63
2022/06/16 07:19:34;;;;;;;2.50;1.12;;;;;;;18.84;59.51;99788.36;1756248;80;20927;-62
2022/06/16 07:22:01;;;;;;;5.00;1.30;;;;;;;18.87;59.62;99788.60;1760085;80;21601;-63
2022/06/16 07:24:28;;;;;;;3.62;1.10;;;;;;;18.89;59.54;99788.84;1760376;80;21720;-62
2022/06/16 07:26:54;;;;;;;2.27;1.00;;;;;;;18.88;58.76;99781.88;1759796;80;21374;-62
2022/06/16 07:29:22;;;;;;;3.87;1.27;;;;;;;18.63;58.24;99775.53;1754224;79;20897;-62
2022/06/16 07:31:48;;;;;;;;;;;;;;;18.46;58.57;99767.13;1769528;80;20965;-62
2022/06/16 07:34:15;;;;;;;3.20;1.30;;;;;;;18.75;58.56;99771.92;1736825;81;20112;-63
2022/06/16 07:36:42;;;;;;;3.40;1.20;;;;;;;18.82;58.72;99775.77;1732315;82;21236;-63
2022/06/16 07:39:09;;;;;;;6.45;1.17;;;;;;;18.71;57.45;99771.79;1725916;81;20901;-63
2022/06/16 07:41:36;;;;;;;4.58;1.42;;;;;;;18.71;58.66;99770.47;1733436;82;20947;-63
2022/06/16 07:44:06;;;;;;;4.78;1.32;;;;;;;18.83;57.74;99776.11;1735857;81;21496;-63
2022/06/16 07:46:34;;;;;;;5.83;1.27;;;;;;;18.97;57.54;99778.97;1736610;82;21501;-63
2022/06/16 07:49:01;;;;;;;3.35;1.37;;;;;;;19.07;57.70;99779.04;1733191;82;21018;-63
2022/06/16 07:51:28;;;;;;;3.95;1.25;;;;;;;19.29;56.91;99779.45;1721106;82;20990;-63
2022/06/16 07:53:54;;;;;;;3.22;1.05;;;;;;;19.63;57.22;99777.00;1723297;82;20989;-63
2022/06/16 07:56:21;;;;;;;2.15;0.78;;;;;;;19.64;56.52;99780.48;1728075;82;20914;-63
2022/06/16 07:58:48;;;;;;;2.58;1.05;;;;;;;20.16;57.03;99777.88;1707289;83;21058;-63
2022/06/16 08:01:15;;;;;;;2.33;0.88;;;;;;;20.35;56.40;99777.95;1711794;83;21050;-63
2022/06/16 08:03:42;;;;;;;0.93;0.60;;;;;;;20.11;55.17;99784.42;1697993;83;20924;-63
2022/06/16 08:06:13;;;;;;;6.10;1.42;;;;;;;20.21;55.85;99780.48;1685203;84;27453;-63
2022/06/16 08:08:40;;;;;;;2.77;0.90;;;;;;;20.03;53.95;99778.11;1684927;84;20998;-63
2022/06/16 08:12:03;;;;;;;1.95;0.72;;;;;;;19.93;55.32;99776.72;1684773;84;20981;-63
2022/06/16 08:13:39;;;;;;;3.65;1.12;;;;;;;20.23;55.25;99777.22;1674922;84;21170;-63
2022/06/16 08:16:06;;;;;;;1.95;0.72;;;;;;;20.12;53.71;99777.31;1684278;84;20974;-62
2022/06/16 08:18:33;;;;;;;3.42;1.12;;;;;;;20.08;53.65;99783.83;1683301;84;21471;-63
2022/06/16 08:20:59;;;;;;;4.53;1.27;;;;;;;20.02;54.52;99776.41;1683433;84;20949;-62
2022/06/16 08:23:28;;;;;;;2.80;0.98;;;;;;;20.42;54.92;99781.77;1692253;84;20939;-63
2022/06/16 08:25:55;;;;;;;1.27;0.82;;;;;;;20.63;54.03;99773.75;1686129;84;21790;-63
2022/06/16 08:28:22;;;;;;;2.05;1.00;;;;;;;21.09;55.01;99774.97;1747724;81;20898;-63
2022/06/16 08:30:49;;;;;;;2.87;1.10;;;;;;;21.65;54.74;99780.92;1745509;81;20911;-61
2022/06/16 08:33:17;;;;;;;9.05;1.30;;;;;;;21.78;53.87;99779.27;1743096;81;20959;-63
2022/06/16 08:35:46;;;;;;;5.05;1.00;;;;;;;21.60;53.55;99775.69;1735845;81;21911;-63
2022/06/16 08:38:14;;;;;;;3.20;1.00;;;;;;;21.80;50.87;99779.14;1742188;81;21129;-63
2022/06/16 08:40:46;;;;;;;2.37;0.80;;;;;;;21.36;51.23;99780.06;1737087;81;20947;-63
2022/06/16 08:43:25;;;;;;;5.60;1.42;;;;;;;20.83;51.75;99787.07;1732210;81;20993;-63
2022/06/16 08:45:59;;;;;;;5.85;1.20;;;;;;;20.74;52.55;99788.73;1741032;81;20997;-62
2022/06/16 08:48:46;;;;;;;3.05;1.10;;;;;;;21.09;52.36;99788.24;1743515;81;21443;-63
2022/06/16 08:51:28;;;;;;;2.55;1.20;;;;;;;21.17;50.45;99790.18;1736979;81;21875;-63
2022/06/16 08:54:12;;;;;;;3.83;0.95;;;;;;;21.49;52.46;99787.30;1732831;81;20939;-64
2022/06/16 08:57:06;;;;;;;3.37;0.90;;;;;;;21.80;52.19;99789.77;1656520;84;20953;-63
2022/06/16 09:00:17;;;;;;;2.52;1.05;;;;;;;21.62;50.29;99790.50;1658477;85;20953;-64
2022/06/16 09:03:09;;;;;;;3.80;1.15;;;;;;;21.04;49.94;99795.77;1658573;85;20906;-63
2022/06/16 09:06:07;;;;;;;2.52;1.07;;;;;;;20.87;50.82;99786.67;1654135;85;21238;-62
2022/06/16 09:08:55;;;;;;;2.98;1.12;;;;;;;20.69;49.08;99805.05;1654750;85;21613;-62
2022/06/16 09:11:51;;;;;;;4.30;1.00;;;;;;;20.30;49.64;99799.56;1658078;85;20932;-62
2022/06/16 09:17:25;;;;;;;2.35;0.85;;;;;;;21.00;50.92;99791.70;1630641;87;21015;-62
2022/06/16 09:20:15;;;;;;;3.37;1.12;;;;;;;21.19;50.42;99807.66;1590666;88;21224;-62
2022/06/16 09:23:14;;;;;;;2.98;1.20;;;;;;;21.23;50.82;99802.93;1602611;88;21095;-62
2022/06/16 09:26:01;;;;;;;3.27;1.35;;;;;;;21.22;50.70;99803.39;1600829;88;21001;-62
2022/06/16 09:28:44;;;;;;;2.37;1.10;;;;;;;21.09;50.10;99812.13;1607544;88;21037;-62
2022/06/16 09:31:25;;;;;;;2.98;1.17;;;;;;;20.82;49.15;99807.95;1599515;88;21451;-62
2022/06/16 09:33:57;;;;;;;6.37;1.50;;;;;;;20.52;49.95;99813.61;1648350;84;21115;-62
2022/06/16 09:36:38;;;;;;;5.40;1.42;;;;;;;20.46;50.21;99814.98;1666330;84;21082;-61
2022/06/16 09:39:16;;;;;;;6.37;1.30;;;;;;;20.68;50.64;99813.16;1670907;84;21501;-61
2022/06/16 09:44:52;;;;;;;1.40;0.78;;;;;;;21.19;50.46;99818.27;1690333;83;21007;-61
2022/06/16 09:47:25;;;;;;;3.05;1.40;;;;;;;21.29;49.81;99814.81;1691489;84;21013;-61
2022/06/16 09:49:59;;;;;;;6.65;1.40;;;;;;;20.78;49.60;99810.88;1694343;84;20978;-61
2022/06/16 09:52:50;;;;;;;1.62;0.98;;;;;;;20.84;50.57;99807.31;1692255;83;20920;-61
2022/06/16 09:55:25;;;;;;;4.55;1.35;;;;;;;21.20;50.48;99810.67;1691636;83;20958;-61
2022/06/16 09:58:24;;;;;;;4.00;1.60;;;;;;;21.32;50.56;99811.88;1689665;83;21550;-61
2022/06/16 10:00:55;;;;;;;7.53;1.55;;;;;;;21.38;49.60;99800.72;1627437;86;21007;-61
2022/06/16 10:03:27;;;;;;;2.30;0.93;;;;;;;21.21;50.21;99810.19;1621858;86;20999;-61
2022/06/16 10:06:29;;;;;;;6.30;1.60;;;;;;;21.39;50.25;99815.66;1644934;85;21545;-61
2022/06/16 10:09:25;;;;;;;2.60;0.88;;;;;;;21.29;50.08;99812.16;1599229;88;20998;-61
2022/06/16 10:12:11;;;;;;;2.05;0.93;;;;;;;20.89;49.56;99815.21;1598165;88;20926;-61
2022/06/16 10:14:44;;;;;;;;;;;;;;;20.76;49.90;99811.50;1574341;90;21959;-61
2022/06/16 10:17:15;;;;;;;3.50;1.02;;;;;;;20.40;49.51;99822.66;1522846;92;20447;-61
2022/06/16 10:19:44;;;;;;;3.25;1.15;;;;;;;19.74;49.42;99829.09;1524873;92;21008;-60
2022/06/16 10:22:18;;;;;;;2.77;1.17;;;;;;;19.22;49.89;99832.06;1523962;92;21017;-61
2022/06/16 10:24:56;;;;;;;2.40;1.20;;;;;;;18.55;50.17;99832.49;1524897;92;21045;-61
2022/06/16 10:27:28;;;;;;;5.62;1.30;;;;;;;18.24;50.81;99835.86;1523104;92;21883;-60
2022/06/16 10:29:58;;;;;;;4.65;1.22;;;;;;;18.07;51.08;99828.74;1540514;92;21076;-61
2022/06/16 10:32:47;;;;;;;3.30;1.07;;;;;;;17.91;51.13;99834.83;1568463;90;20967;-61
2022/06/16 10:35:22;;;;;;;3.62;1.25;;;;;;;17.69;51.47;99834.25;1568160;90;21025;-60
2022/06/16 10:37:52;;;;;;;2.30;1.00;;;;;;;17.70;52.07;99839.05;1582869;89;20980;-61
2022/06/16 10:40:32;;;;;;;4.83;1.47;;;;;;;17.75;52.20;99839.55;1597405;88;21874;-61
2022/06/16 10:43:09;;;;;;;2.98;1.22;;;;;;;18.05;52.65;99835.94;1577294;88;20944;-60
2022/06/16 10:45:38;;;;;;;2.65;0.98;;;;;;;18.63;52.31;99841.64;1636158;83;21554;-61
2022/06/16 10:48:10;;;;;;;4.65;1.32;;;;;;;19.04;52.55;99833.54;1685429;83;21511;-61
2022/06/16 10:50:41;;;;;;;3.62;1.62;;;;;;;19.48;52.61;99830.40;1692933;83;21005;-61
2022/06/16 10:53:31;;;;;;;3.98;1.12;;;;;;;19.78;52.27;99837.64;1695955;84;21115;-61
2022/06/16 10:56:11;;;;;;;2.65;1.20;;;;;;;19.83;51.70;99836.28;1737222;81;21505;-61
2022/06/16 10:58:52;;;;;;;4.97;0.93;;;;;;;19.58;52.16;99836.62;1736409;81;20915;-61
2022/06/16 11:01:27;;;;;;;3.85;1.55;;;;;;;19.70;52.65;99832.98;1719952;81;20962;-61
2022/06/16 11:04:13;;;;;;;2.72;0.90;;;;;;;19.79;52.30;99836.17;1732262;81;20912;-61
2022/06/16 11:06:53;;;;;;;;;;;;;;;19.91;52.43;99838.27;1698727;83;21041;-61
2022/06/16 11:09:25;;;;;;;1.47;0.90;;;;;;;19.55;51.62;99838.17;1698327;83;20490;-61
2022/06/16 11:12:03;;;;;;;1.75;1.00;;;;;;;19.60;52.33;99835.99;1698083;83;20967;-61
2022/06/16 11:14:55;;;;;;;6.40;1.10;;;;;;;19.79;51.92;99840.14;1696649;83;20939;-61
2022/06/16 11:17:40;;;;;;;3.33;1.05;;;;;;;19.92;52.28;99841.30;1697458;84;20944;-60
2022/06/16 11:20:35;;;;;;;2.30;0.85;;;;;;;20.23;52.04;99844.83;1698811;83;20928;-61
2022/06/16 11:23:26;;;;;;;4.40;1.27;;;;;;;20.30;51.68;99834.03;1698240;84;20975;-60
2022/06/16 11:26:17;;;;;;;1.80;1.07;;;;;;;20.22;51.35;99833.87;1698378;84;20927;-60
2022/06/16 11:28:50;;;;;;;2.45;1.10;;;;;;;20.03;51.40;99836.41;1698427;84;20951;-60
2022/06/16 11:31:24;;;;;;;2.55;1.20;;;;;;;20.04;51.26;99838.08;1699305;84;21058;-60
2022/06/16 11:34:20;;;;;;;4.90;1.27;;;;;;;19.84;51.12;99843.26;1696943;84;21438;-60
2022/06/16 11:37:19;;;;;;;5.33;1.13;;;;;;;19.42;50.81;99844.50;1699090;83;20907;-61
2022/06/16 11:40:04;;;;;;;1.90;0.90;;;;;;;19.27;50.68;99847.09;1694477;83;20997;-60
2022/06/16 11:42:51;;;;;;;3.52;1.27;;;;;;;19.10;50.78;99840.52;1700758;83;21510;-60
2022/06/16 11:45:46;;;;;;;1.62;0.88;;;;;;;19.26;51.17;99843.23;1700461;83;20972;-60
2022/06/16 11:48:37;;;;;;;3.70;0.88;;;;;;;19.51;50.62;99848.68;1701418;83;21984;-60
2022/06/16 11:51:33;;;;;;;2.10;0.80;;;;;;;19.47;50.21;99849.92;1696448;84;20931;-60
2022/06/16 11:54:42;;;;;;;3.70;1.37;;;;;;;19.44;50.60;99833.30;1697959;83;20966;-60
2022/06/16 11:57:20;;;;;;;2.83;0.90;;;;;;;19.79;51.05;99837.50;1697729;83;21671;-60
2022/06/16 11:59:54;;;;;;;3.05;1.05;;;;;;;19.65;49.98;99829.84;1697378;83;20995;-60
2022/06/16 12:03:11;;;;;;;2.05;0.80;;;;;;;19.59;50.19;99835.65;1690855;83;21496;-60
2022/06/16 12:06:15;;;;;;;5.58;0.85;;;;;;;19.44;50.00;99837.77;1718989;82;20913;-61
2022/06/16 12:09:04;;;;;;;2.60;0.70;;;;;;;19.37;50.43;99824.17;1722367;82;20918;-61
2022/06/16 12:11:39;;;;;;;4.70;1.12;;;;;;;19.98;51.25;99821.39;1698079;83;20966;-61
2022/06/16 12:14:37;;;;;;;2.42;0.80;;;;;;;20.51;50.92;99817.25;1734178;81;21414;-61
2022/06/16 12:17:27;;;;;;;0.95;0.62;;;;;;;20.75;49.11;99823.09;1702224;83;21133;-61
2022/06/16 12:20:23;;;;;;;3.42;0.80;;;;;;;20.47;49.06;99815.82;1718756;81;20953;-61
2022/06/16 12:23:28;;;;;;;1.37;0.65;;;;;;;20.40;49.03;99833.26;1706053;83;21527;-62
2022/06/16 12:26:20;;;;;;;1.27;0.70;;;;;;;19.95;48.97;99839.70;1630639;86;20985;-61
2022/06/16 12:28:55;;;;;;;4.08;1.12;;;;;;;19.83;49.25;99833.64;1625224;86;21020;-61
2022/06/16 12:31:45;;;;;;;2.95;0.90;;;;;;;19.67;49.75;99825.29;1620861;86;21458;-61